Time;durP1;ratioP1;P1;durP2;ratioP2;P2;SDS_P1;SDS_P2;PMS_P1;PMS_P2;Temp;Humidity;BMP_temperature;BMP_pressure;BME280_temperature;BME280_humidity;BME280_pressure;Samples;Min_cycle;Max_cycle;Signal;HPM_P1;HPM_P2
2022/01/13 00:00:56;;;;;;;197.40;24.87;;;3.90;99.90;;;;;;5117503;23;20167;-90
2022/01/13 00:02:57;;;;;;;212.07;23.17;;;3.80;99.90;;;;;;5117689;23;20156;-91
2022/01/13 00:04:58;;;;;;;310.07;26.93;;;3.80;99.90;;;;;;5117864;23;20214;-90
2022/01/13 00:06:59;;;;;;;128.73;24.40;;;3.60;99.90;;;;;;5142550;23;20171;-91
2022/01/13 00:08:59;;;;;;;114.07;23.00;;;3.60;99.90;;;;;;5117963;23;20148;-91
2022/01/13 00:11:00;;;;;;;159.00;24.30;;;3.40;99.90;;;;;;5117630;23;20156;-90
2022/01/13 00:13:07;;;;;;;283.43;26.97;;;3.50;99.90;;;;;;5117812;23;20155;-90
2022/01/13 00:15:25;;;;;;;278.77;26.27;;;3.50;99.90;;;;;;5117787;23;20188;-90
2022/01/13 00:17:43;;;;;;;335.10;28.37;;;3.60;99.90;;;;;;5120061;23;20172;-90
2022/01/13 00:21:52;;;;;;;105.80;23.63;;;3.40;99.90;;;;;;5144084;23;20186;-90
2022/01/13 00:23:55;;;;;;;168.57;26.33;;;3.50;99.90;;;;;;5119486;23;20148;-90
2022/01/13 00:25:57;;;;;;;257.23;30.30;;;3.30;99.90;;;;;;5119315;23;20258;-90
2022/01/13 00:28:00;;;;;;;231.00;28.73;;;3.60;99.90;;;;;;5120121;23;20174;-91
2022/01/13 00:30:02;;;;;;;159.77;25.97;;;3.70;99.90;;;;;;5119200;23;20510;-90
2022/01/13 00:32:03;;;;;;;160.53;27.03;;;3.50;99.90;;;;;;5144226;23;20240;-91
2022/01/13 00:34:06;;;;;;;196.10;27.23;;;3.40;99.90;;;;;;5143957;23;20154;-90
2022/01/13 00:36:07;;;;;;;292.50;28.57;;;3.40;99.90;;;;;;5119558;23;20159;-91
2022/01/13 00:38:08;;;;;;;177.70;28.00;;;3.40;99.90;;;;;;5119500;23;20242;-92
2022/01/13 00:40:10;;;;;;;253.20;29.07;;;3.50;99.90;;;;;;5119754;23;20186;-91
2022/01/13 00:42:11;;;;;;;226.43;29.07;;;3.60;99.90;;;;;;5144263;23;20147;-91
2022/01/13 00:44:19;;;;;;;251.20;28.03;;;3.70;99.90;;;;;;5144442;23;20155;-90
2022/01/13 00:46:22;;;;;;;229.30;26.60;;;3.70;99.90;;;;;;5119467;23;20818;-90
2022/01/13 00:48:23;;;;;;;451.10;33.20;;;3.90;99.90;;;;;;5119098;23;20168;-90
2022/01/13 00:50:24;;;;;;;272.77;27.50;;;4.00;99.90;;;;;;5119462;23;20188;-91
2022/01/13 00:52:25;;;;;;;576.13;36.07;;;3.90;99.90;;;;;;5119361;23;20207;-90
2022/01/13 00:54:26;;;;;;;681.20;34.83;;;3.90;99.90;;;;;;5119145;23;20247;-91
2022/01/13 00:56:27;;;;;;;841.83;40.33;;;3.90;99.90;;;;;;5119547;23;20264;-90
2022/01/13 00:58:31;;;;;;;463.60;30.33;;;3.90;99.90;;;;;;5119290;23;20226;-92
2022/01/13 01:00:32;;;;;;;519.97;30.50;;;3.90;99.90;;;;;;5143935;23;20159;-91
2022/01/13 01:02:32;;;;;;;610.10;35.67;;;4.00;99.90;;;;;;5143992;23;20170;-91
2022/01/13 01:04:33;;;;;;;467.53;29.57;;;4.00;99.90;;;;;;5119066;23;20156;-91
2022/01/13 01:06:35;;;;;;;607.67;35.43;;;4.00;99.90;;;;;;5118734;23;20215;-91
2022/01/13 01:08:37;;;;;;;642.33;35.70;;;4.20;99.90;;;;;;5119038;23;20217;-91
2022/01/13 01:10:38;;;;;;;625.53;33.93;;;4.10;99.90;;;;;;5119147;23;20152;-92
2022/01/13 01:12:39;;;;;;;528.47;31.70;;;4.10;99.90;;;;;;5119012;23;20595;-91
2022/01/13 01:14:46;;;;;;;645.73;36.50;;;4.00;99.90;;;;;;5118751;23;20231;-91
2022/01/13 01:16:47;;;;;;;566.47;33.53;;;4.20;99.90;;;;;;5118502;23;20234;-92
2022/01/13 01:21:14;;;;;;;696.50;35.13;;;4.20;99.90;;;;;;5143706;23;20202;-90
2022/01/13 01:23:15;;;;;;;783.40;44.17;;;4.30;99.90;;;;;;5143436;23;20185;-91
2022/01/13 01:25:45;;;;;;;628.07;33.50;;;4.40;99.90;;;;;;5118826;23;20155;-91
2022/01/13 01:27:43;;;;;;;482.40;29.63;;;4.40;99.90;;;;;;5142505;23;20692;-91
2022/01/13 01:29:52;;;;;;;604.90;34.50;;;4.20;99.90;;;;;;5118829;23;20602;-91
2022/01/13 01:31:55;;;;;;;810.10;43.43;;;4.30;99.90;;;;;;5118927;23;20233;-90
2022/01/13 01:34:17;;;;;;;592.30;36.87;;;4.20;99.90;;;;;;5144036;23;20179;-90
2022/01/13 01:36:18;;;;;;;515.27;31.80;;;4.20;99.90;;;;;;5119061;23;20156;-91
2022/01/13 01:38:20;;;;;;;548.17;32.33;;;4.00;99.90;;;;;;5143709;23;20171;-90
2022/01/13 01:40:22;;;;;;;346.27;27.73;;;3.90;99.90;;;;;;5119275;23;20167;-90
2022/01/13 01:42:24;;;;;;;356.00;26.73;;;3.90;99.90;;;;;;5119047;23;20175;-91
2022/01/13 01:44:32;;;;;;;377.60;26.67;;;3.90;99.90;;;;;;5119074;23;20183;-90
2022/01/13 01:46:45;;;;;;;587.23;31.80;;;3.90;99.90;;;;;;5118677;23;20218;-90
2022/01/13 01:48:46;;;;;;;499.77;28.67;;;3.90;99.90;;;;;;5118935;23;20163;-92
2022/01/13 01:50:55;;;;;;;508.40;29.00;;;3.90;99.90;;;;;;5144010;23;20151;-90
2022/01/13 01:52:55;;;;;;;363.27;25.90;;;3.80;99.90;;;;;;5118832;23;20148;-90
2022/01/13 01:54:56;;;;;;;681.17;34.80;;;3.80;99.90;;;;;;5118622;23;20194;-91
2022/01/13 01:56:57;;;;;;;276.07;23.60;;;3.70;99.90;;;;;;5118814;23;20251;-90
2022/01/13 01:59:02;;;;;;;550.07;32.17;;;3.60;99.90;;;;;;5119279;23;20152;-90
2022/01/13 02:01:03;;;;;;;708.03;34.37;;;3.60;99.90;;;;;;5118670;23;20192;-92
2022/01/13 02:03:05;;;;;;;541.80;30.57;;;3.80;99.90;;;;;;5118583;23;20204;-92
2022/01/13 02:05:07;;;;;;;242.33;23.00;;;3.80;99.90;;;;;;5143941;23;20144;-91
2022/01/13 02:07:08;;;;;;;549.73;31.87;;;3.90;99.90;;;;;;5118658;23;20176;-91
2022/01/13 02:09:10;;;;;;;538.73;31.10;;;3.90;99.90;;;;;;5118675;23;20156;-91
2022/01/13 02:11:11;;;;;;;560.50;33.60;;;4.00;99.90;;;;;;5118304;23;20156;-90
2022/01/13 02:13:18;;;;;;;343.13;26.30;;;3.80;99.90;;;;;;5118545;23;20234;-91
2022/01/13 02:15:33;;;;;;;603.43;31.80;;;3.90;99.90;;;;;;5118366;23;20617;-91
2022/01/13 02:17:38;;;;;;;649.70;31.83;;;3.90;99.90;;;;;;5117953;23;20621;-91
2022/01/13 02:19:45;;;;;;;563.77;30.43;;;3.90;99.90;;;;;;5143363;23;20154;-91
2022/01/13 02:21:46;;;;;;;573.00;31.07;;;4.00;99.90;;;;;;5118790;23;20152;-91
2022/01/13 02:23:47;;;;;;;196.00;21.53;;;4.00;99.90;;;;;;5118410;23;20152;-90
2022/01/13 02:25:47;;;;;;;394.03;26.00;;;3.90;99.90;;;;;;5143198;23;20582;-90
2022/01/13 02:27:48;;;;;;;474.10;26.97;;;3.80;99.90;;;;;;5118642;23;20538;-91
2022/01/13 02:29:49;;;;;;;541.90;29.23;;;3.80;99.90;;;;;;5118270;23;20152;-92
2022/01/13 02:31:50;;;;;;;786.83;34.60;;;3.70;99.90;;;;;;5118371;23;20148;-91
2022/01/13 02:33:51;;;;;;;661.90;33.90;;;3.60;99.90;;;;;;5118570;23;20675;-90
2022/01/13 02:35:52;;;;;;;344.47;25.10;;;3.70;99.90;;;;;;5118624;23;20203;-91
2022/01/13 02:37:52;;;;;;;226.77;22.20;;;3.70;99.90;;;;;;5118638;23;20180;-90
2022/01/13 02:39:53;;;;;;;596.53;30.73;;;3.40;99.90;;;;;;5117968;23;20148;-91
2022/01/13 02:41:57;;;;;;;468.83;27.43;;;3.30;99.90;;;;;;5118221;23;20583;-91
2022/01/13 02:43:59;;;;;;;334.40;25.90;;;3.20;99.90;;;;;;5118369;23;20210;-91
2022/01/13 02:50:12;;;;;;;813.40;37.30;;;3.10;99.90;;;;;;5143230;23;20228;-91
2022/01/13 02:52:13;;;;;;;549.93;29.93;;;3.30;99.90;;;;;;5143525;23;20147;-90
2022/01/13 02:54:14;;;;;;;510.80;30.40;;;3.40;99.90;;;;;;5143348;23;20183;-91
2022/01/13 02:56:15;;;;;;;698.20;33.23;;;3.50;99.90;;;;;;5143174;23;20154;-90
2022/01/13 02:58:16;;;;;;;957.67;42.83;;;3.50;99.90;;;;;;5118142;23;20172;-91
2022/01/13 03:00:17;;;;;;;788.27;36.40;;;3.50;99.90;;;;;;5118135;23;20164;-90
2022/01/13 03:02:18;;;;;;;586.93;31.40;;;3.70;99.90;;;;;;5143279;23;20151;-90
2022/01/13 03:04:21;;;;;;;749.90;39.67;;;3.60;99.90;;;;;;5118593;23;20155;-91
2022/01/13 03:06:31;;;;;;;759.60;37.63;;;3.70;99.90;;;;;;5118358;23;20152;-91
2022/01/13 03:08:32;;;;;;;437.60;28.23;;;3.80;99.90;;;;;;5118694;23;20151;-91
2022/01/13 19:47:53;;;;;;;;;;;;;;;;;;;;;
2022/01/13 20:03:19;;;;;;;383.87;21.43;;;3.60;99.90;;;;;;5163142;23;20156;-93
2022/01/13 20:05:57;;;;;;;578.27;26.97;;;3.30;99.90;;;;;;5143858;23;20151;-95
2022/01/13 20:13:11;;;;;;;;;;;;;;;;;;;;;
2022/01/13 20:20:09;;;;;;;;;;;;;;;;;;;;;
2022/01/13 20:42:33;;;;;;;406.83;21.73;;;3.20;99.90;;;;;;5165772;22;20194;-95
2022/01/13 20:48:32;;;;;;;468.27;22.13;;;3.10;99.90;;;;;;5193521;22;20276;-94
2022/01/13 20:51:43;;;;;;;483.33;23.27;;;3.30;99.90;;;;;;5113353;23;20156;-93
2022/01/13 21:04:58;;;;;;;;;;;;;;;;;;;;;
2022/01/13 21:58:35;;;;;;;383.57;24.00;;;2.40;99.90;;;;;;5194537;22;20250;-92
2022/01/13 22:07:43;;;;;;;397.23;24.93;;;2.30;99.90;;;;;;5188089;22;20165;-94
2022/01/13 22:10:33;;;;;;;279.97;20.03;;;2.30;99.90;;;;;;5162391;23;20235;-93
2022/01/13 22:12:51;;;;;;;343.33;21.73;;;2.30;99.90;;;;;;5151098;23;20199;-93
2022/01/13 22:17:38;;;;;;;268.03;19.37;;;2.30;99.90;;;;;;5177500;22;20194;-93
2022/01/13 22:20:12;;;;;;;206.27;18.07;;;2.20;99.90;;;;;;5142089;23;20163;-93
2022/01/13 22:25:57;;;;;;;71.20;14.63;;;2.20;99.90;;;;;;5137926;23;20159;-94
2022/01/13 22:30:58;;;;;;;33.13;14.47;;;2.10;99.90;;;;;;5189053;22;20316;-94
2022/01/13 22:35:41;;;;;;;31.77;15.67;;;2.20;99.90;;;;;;5187937;22;20554;-93
2022/01/13 22:37:44;;;;;;;29.20;16.53;;;2.40;99.90;;;;;;5125489;23;20161;-94
2022/01/13 22:40:21;;;;;;;33.20;17.57;;;2.40;99.90;;;;;;5111712;23;20141;-93
2022/01/13 22:43:44;;;;;;;40.90;18.63;;;2.40;99.90;;;;;;5144612;23;20166;-93
2022/01/13 22:46:05;;;;;;;37.47;17.07;;;2.50;99.90;;;;;;5136465;23;20156;-92
2022/01/13 22:48:23;;;;;;;31.17;17.03;;;2.60;99.90;;;;;;5137602;23;20190;-94
2022/01/13 22:50:49;;;;;;;29.77;16.17;;;2.70;99.90;;;;;;5144815;23;20195;-93
2022/01/13 22:55:35;;;;;;;28.30;16.27;;;2.80;99.90;;;;;;5124254;23;20184;-92
2022/01/13 22:57:46;;;;;;;29.17;17.00;;;2.80;99.90;;;;;;5132532;23;20255;-93
2022/01/13 23:01:09;;;;;;;29.13;16.60;;;2.80;99.90;;;;;;5138066;23;20148;-92
2022/01/13 23:03:52;;;;;;;31.77;16.13;;;2.80;99.90;;;;;;5137953;23;20658;-93
2022/01/13 23:06:43;;;;;;;32.23;16.40;;;2.60;99.90;;;;;;5136123;23;20203;-93
2022/01/13 23:08:47;;;;;;;29.37;15.70;;;2.50;99.90;;;;;;5134450;23;20223;-93
2022/01/13 23:11:00;;;;;;;31.10;17.13;;;2.50;99.90;;;;;;5138740;23;20163;-93
2022/01/13 23:13:30;;;;;;;37.30;17.63;;;2.90;99.90;;;;;;5136451;23;20140;-93
2022/01/13 23:22:17;;;;;;;32.77;16.73;;;3.00;99.90;;;;;;5118607;23;20164;-94
2022/01/13 23:25:16;;;;;;;30.97;16.23;;;2.80;99.90;;;;;;5137695;23;20167;-93
2022/01/13 23:28:20;;;;;;;27.30;15.73;;;2.60;99.90;;;;;;5137803;23;20163;-93
2022/01/13 23:30:27;;;;;;;34.40;15.50;;;2.50;99.90;;;;;;4992358;23;20661;-92
2022/01/13 23:33:23;;;;;;;28.90;16.17;;;2.40;99.90;;;;;;4993078;23;20143;-93
2022/01/13 23:35:25;;;;;;;30.60;16.40;;;2.40;99.90;;;;;;5042100;23;20178;-94
2022/01/13 23:37:46;;;;;;;36.13;18.00;;;2.50;99.90;;;;;;5016130;23;20160;-93
2022/01/13 23:40:13;;;;;;;34.97;16.70;;;2.70;99.90;;;;;;5080904;23;20148;-93
2022/01/13 23:42:19;;;;;;;34.70;18.27;;;2.60;99.90;;;;;;5132310;23;20161;-93
2022/01/13 23:45:02;;;;;;;31.87;18.43;;;2.60;99.90;;;;;;5112875;23;20141;-94
2022/01/13 23:47:16;;;;;;;34.77;18.03;;;2.60;99.90;;;;;;5086699;23;20166;-93
2022/01/13 23:50:10;;;;;;;29.23;16.00;;;2.60;99.90;;;;;;5135510;23;20171;-93
2022/01/13 23:52:24;;;;;;;24.47;15.77;;;2.50;99.90;;;;;;5112421;23;20216;-94
2022/01/13 23:54:56;;;;;;;28.40;15.53;;;2.50;99.90;;;;;;5136516;23;20160;-93
2022/01/13 23:57:33;;;;;;;29.07;16.20;;;2.50;99.90;;;;;;5117973;23;20164;-93
